createdAt,value
2019-04-28T00:01:36.896Z,10.98
2019-04-28T00:04:08.858Z,10.28
2019-04-28T00:06:42.256Z,11.18
2019-04-28T00:09:15.124Z,11.22
2019-04-28T00:11:46.712Z,10.90
2019-04-28T00:14:21.916Z,11.28
2019-04-28T00:16:53.950Z,10.82
2019-04-28T00:19:26.771Z,11.50
2019-04-28T00:22:03.200Z,11.65
2019-04-28T00:24:41.528Z,11.25
2019-04-28T00:27:13.463Z,10.72
2019-04-28T00:29:46.301Z,11.50
2019-04-28T00:34:51.161Z,11.38
2019-04-28T00:37:24.385Z,10.95
2019-04-28T00:39:56.127Z,10.93
2019-04-28T00:42:27.714Z,10.50
2019-04-28T00:44:59.234Z,11.15
2019-04-28T00:47:31.293Z,10.75
2019-04-28T00:50:03.158Z,11.55
2019-04-28T00:52:35.020Z,11.63
2019-04-28T00:55:07.344Z,11.57
2019-04-28T00:57:40.959Z,11.80
2019-04-28T01:00:14.352Z,10.08
2019-04-28T01:02:46.188Z,11.07
2019-04-28T01:05:18.023Z,11.05
2019-04-28T01:07:51.516Z,11.40
2019-04-28T01:10:24.298Z,11.20
2019-04-28T01:12:56.058Z,10.65
2019-04-28T01:15:29.897Z,11.18
2019-04-28T01:18:06.426Z,10.98
2019-04-28T01:20:39.670Z,10.82
2019-04-28T01:23:11.176Z,10.20
2019-04-28T01:25:42.850Z,10.38
2019-04-28T01:28:16.857Z,8.75
2019-04-28T01:30:53.219Z,8.08
2019-04-28T01:33:26.351Z,7.25
2019-04-28T01:35:57.946Z,7.43
2019-04-28T01:38:30.271Z,7.92
2019-04-28T01:41:02.247Z,8.10
2019-04-28T01:43:34.026Z,8.88
2019-04-28T01:46:05.754Z,9.20
2019-04-28T01:48:37.537Z,8.98
2019-04-28T01:51:09.563Z,9.48
2019-04-28T01:53:41.329Z,9.58
2019-04-28T01:56:13.281Z,8.58
2019-04-28T01:58:45.643Z,9.53
2019-04-28T02:01:17.406Z,9.00
2019-04-28T02:03:50.222Z,9.40
2019-04-28T02:06:22.358Z,8.75
2019-04-28T02:09:00.876Z,9.43
2019-04-28T02:11:34.115Z,8.88
2019-04-28T02:14:06.132Z,9.80
2019-04-28T02:16:37.581Z,8.80
2019-04-28T02:19:10.721Z,9.13
2019-04-28T02:21:44.686Z,8.63
2019-04-28T02:24:30.862Z,8.70
2019-04-28T02:27:03.725Z,7.25
2019-04-28T02:29:35.571Z,7.28
2019-04-28T02:32:10.374Z,7.55
2019-04-28T02:34:44.072Z,7.12
2019-04-28T02:37:15.623Z,7.85
2019-04-28T02:39:47.478Z,7.75
2019-04-28T02:42:20.799Z,7.62
2019-04-28T02:44:52.644Z,8.43
2019-04-28T02:47:24.510Z,8.85
2019-04-28T02:50:14.405Z,8.18
2019-04-28T02:52:55.193Z,8.20
2019-04-28T02:55:27.321Z,8.48
2019-04-28T02:58:01.443Z,8.25
2019-04-28T03:00:32.135Z,8.30
2019-04-28T03:03:03.736Z,8.60
2019-04-28T03:05:35.490Z,9.08
2019-04-28T03:08:07.456Z,8.65
2019-04-28T03:10:41.327Z,8.30
2019-04-28T03:13:14.621Z,8.10
2019-04-28T03:15:46.654Z,8.18
2019-04-28T03:18:18.274Z,8.80
2019-04-28T03:20:51.572Z,8.53
2019-04-28T03:23:23.352Z,8.90
2019-04-28T03:25:57.693Z,8.25
2019-04-28T03:28:37.007Z,7.77
2019-04-28T03:31:47.768Z,8.53
2019-04-28T03:33:55.131Z,7.35
2019-04-28T03:36:23.966Z,8.43
2019-04-28T03:38:55.661Z,7.80
2019-04-28T03:41:27.668Z,7.58
2019-04-28T03:44:00.524Z,7.97
2019-04-28T03:46:34.237Z,7.35
2019-04-28T03:49:05.772Z,8.55
2019-04-28T03:51:40.791Z,7.97
2019-04-28T03:54:12.220Z,8.78
2019-04-28T03:56:45.079Z,8.30
2019-04-28T03:59:16.949Z,8.43
2019-04-28T04:01:56.537Z,7.65
2019-04-28T04:04:21.996Z,8.30
2019-04-28T04:06:53.875Z,7.80
2019-04-28T04:09:27.357Z,8.13
2019-04-28T04:12:21.280Z,8.03
2019-04-28T04:14:54.493Z,7.92
2019-04-28T04:17:33.409Z,9.25
2019-04-28T04:20:05.438Z,8.68
2019-04-28T04:22:36.974Z,8.33
2019-04-28T04:25:12.274Z,8.95
2019-04-28T04:27:42.292Z,8.48
2019-04-28T04:30:15.626Z,9.53
2019-04-28T04:32:47.498Z,9.80
2019-04-28T04:35:21.442Z,9.63
2019-04-28T04:37:53.162Z,8.55
2019-04-28T04:40:24.774Z,9.25
2019-04-28T04:42:56.494Z,9.65
2019-04-28T04:45:30.464Z,9.43
2019-04-28T04:48:02.768Z,10.00
2019-04-28T04:50:34.723Z,10.18
2019-04-28T04:53:06.290Z,9.30
2019-04-28T04:55:40.789Z,9.75
2019-04-28T04:58:14.435Z,10.23
2019-04-28T05:00:56.870Z,9.15
2019-04-28T05:03:31.329Z,9.15
2019-04-28T05:06:04.938Z,8.95
2019-04-28T05:08:36.705Z,9.07
2019-04-28T05:11:11.299Z,9.28
2019-04-28T05:13:44.845Z,9.43
2019-04-28T05:16:16.659Z,9.73
2019-04-28T05:18:49.915Z,9.03
2019-04-28T05:21:21.844Z,9.93
2019-04-28T05:23:54.941Z,9.05
2019-04-28T05:26:26.689Z,9.40
2019-04-28T05:28:59.716Z,9.88
2019-04-28T05:31:32.456Z,8.58
2019-04-28T05:34:08.151Z,9.33
2019-04-28T05:36:43.955Z,8.83
2019-04-28T05:39:12.725Z,9.25
2019-04-28T05:41:45.455Z,9.18
2019-04-28T05:44:17.317Z,8.43
2019-04-28T05:46:50.652Z,9.30
2019-04-28T05:49:43.397Z,9.03
2019-04-28T05:52:33.675Z,10.00
2019-04-28T05:55:11.861Z,9.35
2019-04-28T05:57:45.350Z,10.00
2019-04-28T06:00:19.878Z,10.50
2019-04-28T06:02:56.531Z,10.40
2019-04-28T06:05:30.130Z,10.50
2019-04-28T06:08:17.633Z,10.78
2019-04-28T06:10:50.168Z,10.08
2019-04-28T06:13:22.442Z,11.25
2019-04-28T06:15:56.203Z,11.22
2019-04-28T06:18:28.261Z,13.45
2019-04-28T06:21:00.066Z,12.18
2019-04-28T06:23:32.060Z,11.57
2019-04-28T06:26:03.987Z,12.45
2019-04-28T06:28:35.569Z,12.55
2019-04-28T06:31:07.416Z,12.63
2019-04-28T06:33:38.912Z,11.57
2019-04-28T06:36:10.677Z,11.50
2019-04-28T06:38:42.277Z,12.07
2019-04-28T06:41:13.992Z,12.05
2019-04-28T06:43:45.637Z,11.85
2019-04-28T06:46:17.662Z,13.60
2019-04-28T06:48:49.106Z,13.83
2019-04-28T06:51:20.991Z,13.32
2019-04-28T06:53:53.094Z,14.13
2019-04-28T06:56:29.303Z,13.50
2019-04-28T06:59:04.193Z,14.10
2019-04-28T07:01:36.049Z,13.85
2019-04-28T07:04:08.267Z,13.85
2019-04-28T07:06:40.247Z,15.40
2019-04-28T07:09:12.371Z,13.48
2019-04-28T07:11:44.048Z,12.88
2019-04-28T07:14:17.782Z,13.00
2019-04-28T07:16:51.687Z,12.43
2019-04-28T07:19:24.196Z,13.22
2019-04-28T07:22:03.262Z,13.22
2019-04-28T07:24:36.198Z,12.95
2019-04-28T07:27:13.499Z,12.20
2019-04-28T07:29:45.566Z,13.20
2019-04-28T07:32:24.527Z,13.95
2019-04-28T07:35:00.109Z,13.05
2019-04-28T07:37:33.405Z,13.80
2019-04-28T07:40:07.928Z,13.68
2019-04-28T07:42:43.903Z,12.68
2019-04-28T07:47:48.315Z,11.45
2019-04-28T07:50:21.530Z,10.53
2019-04-28T07:52:59.370Z,12.23
2019-04-28T07:55:31.187Z,12.20
2019-04-28T07:58:05.132Z,11.90
2019-04-28T08:00:38.948Z,11.78
2019-04-28T08:03:15.730Z,8.93
2019-04-28T08:05:47.505Z,8.25
2019-04-28T08:10:54.645Z,5.95
2019-04-28T08:13:30.157Z,6.72
2019-04-28T08:16:02.048Z,6.40
2019-04-28T08:18:35.950Z,5.58
2019-04-28T08:21:07.540Z,5.55
2019-04-28T08:23:47.366Z,5.17
2019-04-28T08:26:19.316Z,5.35
2019-04-28T08:28:53.593Z,5.10
2019-04-28T08:31:29.846Z,5.20
2019-04-28T08:34:05.958Z,5.00
2019-04-28T08:39:13.458Z,5.22
2019-04-28T08:41:45.152Z,5.30
2019-04-28T08:44:17.408Z,5.35
2019-04-28T08:46:49.110Z,5.17
2019-04-28T08:49:21.533Z,5.47
2019-04-28T08:51:55.950Z,5.40
2019-04-28T08:54:31.164Z,5.05
2019-04-28T08:57:04.981Z,5.37
2019-04-28T08:59:43.055Z,5.80
2019-04-28T09:02:15.518Z,5.65
2019-04-28T09:04:51.519Z,5.45
2019-04-28T09:07:24.240Z,5.22
2019-04-28T09:09:56.394Z,5.95
2019-04-28T09:12:28.293Z,5.55
2019-04-28T09:15:00.081Z,5.12
2019-04-28T09:17:33.669Z,5.83
2019-04-28T09:20:09.413Z,5.47
2019-04-28T09:22:41.051Z,5.40
2019-04-28T09:27:49.387Z,4.67
2019-04-28T09:30:22.655Z,5.67
2019-04-28T09:32:55.248Z,4.95
2019-04-28T09:35:27.224Z,4.42
2019-04-28T09:37:58.989Z,5.00
2019-04-28T09:40:32.485Z,4.78
2019-04-28T09:43:18.014Z,6.40
2019-04-28T09:45:51.406Z,4.90
2019-04-28T09:48:23.316Z,7.80
2019-04-28T09:50:56.739Z,6.67
2019-04-28T09:53:28.959Z,6.50
2019-04-28T09:56:01.875Z,7.37
2019-04-28T09:58:33.739Z,8.10
2019-04-28T10:01:05.697Z,7.78
2019-04-28T10:03:37.877Z,6.87
2019-04-28T10:06:11.049Z,5.17
2019-04-28T10:08:43.451Z,5.70
2019-04-28T10:11:15.253Z,5.45
2019-04-28T10:13:50.009Z,5.92
2019-04-28T10:16:21.736Z,7.03
2019-04-28T10:18:53.423Z,10.25
2019-04-28T10:21:28.002Z,9.43
2019-04-28T10:24:03.307Z,6.45
2019-04-28T10:26:37.261Z,6.37
2019-04-28T10:29:10.523Z,5.37
2019-04-28T10:31:43.298Z,5.80
2019-04-28T10:34:16.261Z,5.67
2019-04-28T10:36:49.721Z,6.10
2019-04-28T10:42:04.863Z,7.72
2019-04-28T10:44:39.243Z,8.65
2019-04-28T10:47:11.169Z,7.42
2019-04-28T10:49:43.169Z,6.45
2019-04-28T10:52:16.628Z,6.40
2019-04-28T10:54:52.625Z,5.72
2019-04-28T10:57:24.509Z,7.40
2019-04-28T10:59:57.458Z,7.70
2019-04-28T11:02:29.609Z,6.97
2019-04-28T11:05:08.738Z,7.28
2019-04-28T11:07:36.880Z,6.80
2019-04-28T11:10:10.336Z,7.17
2019-04-28T11:12:42.544Z,6.30
2019-04-28T11:15:18.353Z,6.62
2019-04-28T11:17:50.022Z,9.53
2019-04-28T11:20:25.082Z,8.80
2019-04-28T11:22:57.776Z,8.08
2019-04-28T11:25:30.537Z,7.97
2019-04-28T11:28:02.216Z,7.30
2019-04-28T11:30:36.494Z,6.83
2019-04-28T11:33:19.670Z,6.10
2019-04-28T11:35:51.807Z,6.80
2019-04-28T11:38:23.569Z,6.03
2019-04-28T11:40:55.383Z,6.50
2019-04-28T11:43:27.168Z,7.12
2019-04-28T11:45:58.860Z,6.58
2019-04-28T11:48:31.783Z,7.72
2019-04-28T11:51:03.965Z,9.50
2019-04-28T11:53:37.305Z,7.37
2019-04-28T11:56:09.401Z,7.10
2019-04-28T11:58:41.044Z,7.45
2019-04-28T12:01:13.699Z,8.08
2019-04-28T12:03:45.779Z,7.45
2019-04-28T12:06:17.218Z,6.80
2019-04-28T12:08:51.891Z,6.40
2019-04-28T12:11:25.349Z,6.92
2019-04-28T12:14:06.816Z,7.55
2019-04-28T12:16:55.311Z,6.10
2019-04-28T12:19:29.026Z,6.08
2019-04-28T12:22:00.712Z,6.12
2019-04-28T12:24:34.213Z,8.23
2019-04-28T12:27:08.703Z,7.30
2019-04-28T12:29:40.250Z,7.50
2019-04-28T12:32:12.055Z,9.25
2019-04-28T12:34:43.943Z,10.90
2019-04-28T12:37:16.920Z,10.68
2019-04-28T12:39:48.577Z,9.90
2019-04-28T12:42:21.186Z,9.93
2019-04-28T12:44:53.091Z,10.20
2019-04-28T12:47:24.814Z,10.18
2019-04-28T12:49:58.006Z,9.45
2019-04-28T12:52:29.513Z,8.80
2019-04-28T12:55:01.342Z,8.75
2019-04-28T12:57:32.921Z,9.15
2019-04-28T13:00:22.994Z,8.80
2019-04-28T13:03:15.115Z,9.48
2019-04-28T13:06:00.883Z,10.28
2019-04-28T13:08:22.511Z,9.53
2019-04-28T13:10:54.662Z,9.38
2019-04-28T13:13:27.471Z,11.70
2019-04-28T13:15:59.726Z,11.95
2019-04-28T13:18:31.935Z,10.00
2019-04-28T13:21:03.694Z,9.53
2019-04-28T13:23:36.562Z,9.13
2019-04-28T13:26:11.142Z,9.90
2019-04-28T13:28:43.986Z,10.28
2019-04-28T13:31:15.837Z,10.10
2019-04-28T13:33:56.342Z,9.80
2019-04-28T13:36:21.223Z,9.25
2019-04-28T13:38:53.969Z,8.70
2019-04-28T13:41:25.586Z,8.75
2019-04-28T13:43:57.191Z,8.60
2019-04-28T13:46:29.919Z,9.70
2019-04-28T13:49:04.178Z,9.33
2019-04-28T13:54:07.766Z,9.70
2019-04-28T13:56:39.490Z,10.07
2019-04-28T13:59:12.729Z,12.23
2019-04-28T14:02:04.488Z,9.60
2019-04-28T14:04:40.647Z,8.50
2019-04-28T14:07:12.430Z,9.08
2019-04-28T14:09:44.190Z,8.50
2019-04-28T14:12:16.133Z,9.55
2019-04-28T14:14:48.212Z,8.70
2019-04-28T14:17:19.738Z,7.97
2019-04-28T14:19:51.606Z,8.88
2019-04-28T14:22:23.386Z,9.10
2019-04-28T14:24:55.240Z,9.05
2019-04-28T14:27:28.240Z,12.18
2019-04-28T14:29:59.974Z,8.45
2019-04-28T14:32:31.810Z,8.35
2019-04-28T14:35:05.135Z,9.13
2019-04-28T14:37:36.758Z,8.95
2019-04-28T14:40:08.651Z,8.55
2019-04-28T14:42:40.243Z,10.80
2019-04-28T14:45:12.506Z,11.15
2019-04-28T14:47:44.701Z,9.53
2019-04-28T14:50:17.138Z,9.45
2019-04-28T14:52:49.709Z,8.90
2019-04-28T14:55:21.427Z,8.90
2019-04-28T14:57:54.154Z,9.13
2019-04-28T15:00:33.463Z,9.55
2019-04-28T15:03:06.977Z,9.80
2019-04-28T15:05:40.195Z,9.45
2019-04-28T15:08:16.667Z,8.98
2019-04-28T15:10:52.907Z,9.28
2019-04-28T15:13:25.510Z,9.75
2019-04-28T15:15:57.416Z,9.85
2019-04-28T15:18:29.263Z,9.78
2019-04-28T15:21:02.609Z,8.55
2019-04-28T15:23:44.667Z,8.65
2019-04-28T15:26:22.309Z,9.08
2019-04-28T15:28:56.652Z,8.53
2019-04-28T15:31:28.377Z,8.95
2019-04-28T15:34:00.608Z,8.95
2019-04-28T15:36:34.191Z,8.83
2019-04-28T15:39:09.503Z,8.50
2019-04-28T15:41:44.017Z,8.03
2019-04-28T15:44:19.247Z,8.38
2019-04-28T15:46:51.554Z,9.28
2019-04-28T15:49:23.293Z,8.53
2019-04-28T15:51:55.072Z,8.58
2019-04-28T15:54:28.594Z,7.62
2019-04-28T15:57:00.923Z,8.98
2019-04-28T15:59:32.732Z,9.13
2019-04-28T16:02:04.478Z,8.60
2019-04-28T16:04:39.588Z,8.48
2019-04-28T16:07:24.362Z,9.00
2019-04-28T16:09:45.564Z,9.08
2019-04-28T16:12:17.387Z,9.38
2019-04-28T16:14:49.246Z,9.63
2019-04-28T16:17:23.524Z,8.78
2019-04-28T16:19:55.364Z,9.93
2019-04-28T16:22:27.016Z,9.83
2019-04-28T16:24:58.697Z,10.30
2019-04-28T16:27:30.569Z,12.03
2019-04-28T16:30:08.840Z,12.55
2019-04-28T16:32:40.873Z,12.20
2019-04-28T16:35:14.311Z,13.60
2019-04-28T16:37:46.713Z,12.40
2019-04-28T16:40:18.864Z,14.40
2019-04-28T16:42:50.909Z,12.10
2019-04-28T16:45:22.700Z,12.90
2019-04-28T16:47:54.467Z,12.93
2019-04-28T16:50:26.315Z,13.05
2019-04-28T16:52:59.003Z,13.30
2019-04-28T16:55:32.797Z,13.35
2019-04-28T16:58:24.761Z,13.80
2019-04-28T17:00:58.289Z,16.02
2019-04-28T17:03:49.992Z,16.42
2019-04-28T17:06:21.962Z,16.42
2019-04-28T17:08:53.523Z,18.35
2019-04-28T17:11:25.844Z,18.02
2019-04-28T17:13:57.498Z,18.12
2019-04-28T17:16:29.524Z,18.12
2019-04-28T17:19:02.397Z,19.02
2019-04-28T17:21:35.748Z,20.37
2019-04-28T17:24:07.371Z,19.37
2019-04-28T17:26:39.320Z,20.45
2019-04-28T17:29:11.137Z,19.95
2019-04-28T17:31:44.733Z,20.93
2019-04-28T17:34:16.348Z,20.43
2019-04-28T17:36:48.141Z,20.43
2019-04-28T17:39:25.944Z,19.23
2019-04-28T17:41:57.505Z,20.35
2019-04-28T17:44:29.358Z,20.97
2019-04-28T17:47:00.893Z,21.07
2019-04-28T17:49:34.581Z,19.75
2019-04-28T17:52:06.763Z,21.33
2019-04-28T17:54:38.667Z,17.87
2019-04-28T17:57:11.871Z,19.02
2019-04-28T17:59:45.286Z,20.20
2019-04-28T18:02:36.371Z,17.80
2019-04-28T18:05:12.633Z,16.07
2019-04-28T18:07:45.131Z,16.62
2019-04-28T18:10:17.168Z,16.00
2019-04-28T18:12:59.898Z,17.42
2019-04-28T18:15:24.203Z,15.25
2019-04-28T18:17:57.618Z,14.45
2019-04-28T18:20:30.956Z,13.68
2019-04-28T18:23:04.214Z,13.43
2019-04-28T18:25:36.525Z,13.88
2019-04-28T18:28:08.023Z,12.85
2019-04-28T18:30:41.218Z,12.90
2019-04-28T18:33:14.834Z,11.75
2019-04-28T18:35:48.377Z,13.68
2019-04-28T18:38:34.376Z,15.70
2019-04-28T18:41:12.277Z,14.45
2019-04-28T18:43:45.886Z,14.75
2019-04-28T18:46:20.695Z,14.75
2019-04-28T18:48:52.329Z,14.58
2019-04-28T18:51:29.709Z,15.05
2019-04-28T18:54:02.642Z,14.00
2019-04-28T18:56:34.824Z,14.70
2019-04-28T18:59:06.777Z,13.98
2019-04-28T19:01:40.346Z,13.35
2019-04-28T19:06:44.470Z,14.87
2019-04-28T19:09:33.058Z,15.80
2019-04-28T19:12:22.871Z,14.03
2019-04-28T19:14:59.317Z,13.78
2019-04-28T19:17:36.603Z,13.72
2019-04-28T19:20:08.869Z,13.95
2019-04-28T19:22:47.751Z,13.60
2019-04-28T19:25:19.560Z,13.28
2019-04-28T19:27:53.650Z,13.48
2019-04-28T19:30:27.391Z,13.43
2019-04-28T19:33:00.965Z,13.78
2019-04-28T19:35:32.510Z,12.55
2019-04-28T19:38:04.615Z,12.53
2019-04-28T19:40:36.870Z,12.53
2019-04-28T19:43:08.917Z,11.75
2019-04-28T19:45:43.668Z,10.32
2019-04-28T19:48:31.155Z,11.08
2019-04-28T19:51:03.039Z,10.05
2019-04-28T19:53:34.922Z,9.30
2019-04-28T19:56:10.461Z,9.95
2019-04-28T19:58:44.430Z,9.15
2019-04-28T20:01:28.552Z,9.18
2019-04-28T20:04:01.448Z,9.55
2019-04-28T20:06:34.086Z,9.50
2019-04-28T20:09:08.052Z,10.48
2019-04-28T20:14:12.040Z,10.53
2019-04-28T20:16:43.807Z,10.00
2019-04-28T20:19:15.450Z,9.88
2019-04-28T20:21:47.336Z,9.35
2019-04-28T20:24:19.588Z,9.80
2019-04-28T20:26:53.186Z,10.20
2019-04-28T20:29:24.859Z,9.55
2019-04-28T20:31:57.745Z,9.63
2019-04-28T20:34:29.503Z,9.33
2019-04-28T20:37:06.520Z,10.08
2019-04-28T20:39:38.391Z,9.58
2019-04-28T20:42:11.738Z,8.60
2019-04-28T20:44:45.113Z,8.88
2019-04-28T20:47:16.986Z,9.18
2019-04-28T20:49:49.669Z,8.98
2019-04-28T20:52:21.347Z,8.25
2019-04-28T20:54:52.912Z,8.75
2019-04-28T20:57:26.994Z,8.60
2019-04-28T20:59:59.222Z,7.90
2019-04-28T21:02:31.277Z,8.18
2019-04-28T21:05:02.993Z,8.50
2019-04-28T21:07:35.746Z,8.13
2019-04-28T21:10:07.674Z,7.75
2019-04-28T21:12:40.110Z,8.55
2019-04-28T21:15:12.135Z,8.00
2019-04-28T21:17:43.899Z,8.33
2019-04-28T21:20:15.342Z,8.15
2019-04-28T21:22:48.414Z,7.90
2019-04-28T21:25:21.998Z,9.08
2019-04-28T21:27:55.067Z,7.80
2019-04-28T21:30:26.553Z,7.40
2019-04-28T21:33:00.481Z,8.53
2019-04-28T21:35:33.663Z,7.60
2019-04-28T21:38:05.380Z,8.10
2019-04-28T21:40:37.383Z,8.20
2019-04-28T21:43:16.720Z,7.60
2019-04-28T21:45:58.362Z,7.78
2019-04-28T21:48:38.183Z,7.90
2019-04-28T21:51:11.983Z,8.00
2019-04-28T21:53:43.887Z,7.45
2019-04-28T21:56:15.604Z,8.15
2019-04-28T21:58:47.411Z,8.68
2019-04-28T22:01:22.464Z,8.40
2019-04-28T22:03:54.122Z,8.95
2019-04-28T22:06:25.745Z,12.28
2019-04-28T22:08:57.514Z,15.48
2019-04-28T22:11:29.385Z,18.75
2019-04-28T22:14:00.885Z,18.87
2019-04-28T22:16:32.641Z,17.10
2019-04-28T22:19:04.500Z,16.93
2019-04-28T22:21:36.335Z,12.95
2019-04-28T22:24:19.082Z,11.33
2019-04-28T22:26:55.128Z,11.65
2019-04-28T22:29:27.361Z,11.63
2019-04-28T22:31:58.920Z,10.13
2019-04-28T22:34:31.522Z,9.80
2019-04-28T22:37:03.328Z,9.03
2019-04-28T22:39:34.927Z,8.33
2019-04-28T22:42:07.903Z,8.40
2019-04-28T22:44:39.514Z,9.68
2019-04-28T22:47:13.362Z,8.35
2019-04-28T22:49:45.227Z,8.75
2019-04-28T22:52:16.917Z,8.48
2019-04-28T22:54:50.174Z,8.63
2019-04-28T22:57:39.853Z,8.87
2019-04-28T23:00:18.973Z,8.78
2019-04-28T23:02:52.310Z,9.15
2019-04-28T23:05:24.195Z,8.60
2019-04-28T23:07:56.003Z,8.20
2019-04-28T23:10:27.799Z,8.58
2019-04-28T23:13:01.205Z,8.55
2019-04-28T23:15:33.258Z,9.10
2019-04-28T23:18:05.018Z,9.20
2019-04-28T23:20:38.391Z,8.63
2019-04-28T23:23:10.455Z,9.60
2019-04-28T23:25:42.026Z,8.90
2019-04-28T23:28:13.767Z,9.05
2019-04-28T23:30:46.572Z,9.65
2019-04-28T23:33:19.068Z,8.63
2019-04-28T23:35:52.035Z,8.98
2019-04-28T23:38:24.628Z,9.18
2019-04-28T23:41:07.584Z,8.93
2019-04-28T23:43:39.282Z,8.55
2019-04-28T23:46:11.034Z,9.53
2019-04-28T23:48:42.447Z,8.95
2019-04-28T23:51:31.796Z,9.33
2019-04-28T23:54:05.156Z,8.05
2019-04-28T23:56:36.903Z,8.90
2019-04-28T23:59:08.684Z,8.05
